sensor_id;sensor_type;location;lat;lon;timestamp;P1;durP1;ratioP1;P2;durP2;ratioP2
1154;SDS011;566;48.414;9.118;2023-02-18T00:02:12;3.53;;;1.90;;
1154;SDS011;566;48.414;9.118;2023-02-18T00:04:37;2.88;;;1.70;;
1154;SDS011;566;48.414;9.118;2023-02-18T00:07:03;3.78;;;1.80;;
1154;SDS011;566;48.414;9.118;2023-02-18T00:09:31;3.70;;;2.00;;
1154;SDS011;566;48.414;9.118;2023-02-18T00:11:57;3.58;;;1.77;;
1154;SDS011;566;48.414;9.118;2023-02-18T00:14:25;4.75;;;1.85;;
1154;SDS011;566;48.414;9.118;2023-02-18T00:16:51;3.60;;;1.92;;
1154;SDS011;566;48.414;9.118;2023-02-18T00:19:17;2.88;;;1.60;;
1154;SDS011;566;48.414;9.118;2023-02-18T00:21:43;3.75;;;1.98;;
1154;SDS011;566;48.414;9.118;2023-02-18T00:24:10;3.22;;;1.60;;
1154;SDS011;566;48.414;9.118;2023-02-18T00:26:39;3.97;;;1.95;;
1154;SDS011;566;48.414;9.118;2023-02-18T00:29:05;3.47;;;1.70;;
1154;SDS011;566;48.414;9.118;2023-02-18T00:31:32;3.72;;;1.70;;
1154;SDS011;566;48.414;9.118;2023-02-18T00:33:59;3.33;;;1.70;;
1154;SDS011;566;48.414;9.118;2023-02-18T00:36:26;3.83;;;1.73;;
1154;SDS011;566;48.414;9.118;2023-02-18T00:38:53;3.85;;;1.70;;
1154;SDS011;566;48.414;9.118;2023-02-18T00:41:21;4.28;;;1.90;;
1154;SDS011;566;48.414;9.118;2023-02-18T00:43:48;3.15;;;1.83;;
1154;SDS011;566;48.414;9.118;2023-02-18T00:46:13;3.88;;;1.70;;
1154;SDS011;566;48.414;9.118;2023-02-18T00:48:39;3.90;;;1.80;;
1154;SDS011;566;48.414;9.118;2023-02-18T00:51:05;3.95;;;2.05;;
1154;SDS011;566;48.414;9.118;2023-02-18T00:53:32;4.10;;;1.80;;
1154;SDS011;566;48.414;9.118;2023-02-18T00:55:58;3.33;;;1.88;;
1154;SDS011;566;48.414;9.118;2023-02-18T00:58:24;4.13;;;1.70;;
1154;SDS011;566;48.414;9.118;2023-02-18T01:00:49;3.38;;;1.80;;
1154;SDS011;566;48.414;9.118;2023-02-18T01:03:15;3.10;;;1.60;;
1154;SDS011;566;48.414;9.118;2023-02-18T01:05:41;3.55;;;1.80;;
1154;SDS011;566;48.414;9.118;2023-02-18T01:08:08;3.70;;;1.60;;
1154;SDS011;566;48.414;9.118;2023-02-18T01:10:34;4.45;;;1.80;;
1154;SDS011;566;48.414;9.118;2023-02-18T01:13:03;4.07;;;2.00;;
1154;SDS011;566;48.414;9.118;2023-02-18T01:15:29;3.50;;;1.80;;
1154;SDS011;566;48.414;9.118;2023-02-18T01:17:55;3.38;;;1.70;;
1154;SDS011;566;48.414;9.118;2023-02-18T01:20:21;3.38;;;1.70;;
1154;SDS011;566;48.414;9.118;2023-02-18T01:22:47;2.65;;;1.40;;
1154;SDS011;566;48.414;9.118;2023-02-18T01:25:13;3.88;;;1.70;;
1154;SDS011;566;48.414;9.118;2023-02-18T01:27:39;3.55;;;1.60;;
1154;SDS011;566;48.414;9.118;2023-02-18T01:30:05;3.35;;;1.70;;
1154;SDS011;566;48.414;9.118;2023-02-18T01:32:32;4.15;;;1.50;;
1154;SDS011;566;48.414;9.118;2023-02-18T01:34:59;3.72;;;1.63;;
1154;SDS011;566;48.414;9.118;2023-02-18T01:37:26;2.90;;;1.50;;
1154;SDS011;566;48.414;9.118;2023-02-18T01:39:51;5.38;;;1.60;;
1154;SDS011;566;48.414;9.118;2023-02-18T01:42:18;2.58;;;1.40;;
1154;SDS011;566;48.414;9.118;2023-02-18T01:44:46;2.53;;;1.30;;
1154;SDS011;566;48.414;9.118;2023-02-18T01:47:12;3.85;;;1.50;;
1154;SDS011;566;48.414;9.118;2023-02-18T01:49:39;2.72;;;1.40;;
1154;SDS011;566;48.414;9.118;2023-02-18T01:52:17;3.30;;;1.40;;
1154;SDS011;566;48.414;9.118;2023-02-18T01:54:47;2.72;;;1.20;;
1154;SDS011;566;48.414;9.118;2023-02-18T01:57:20;3.00;;;1.50;;
1154;SDS011;566;48.414;9.118;2023-02-18T02:02:21;3.80;;;1.40;;
1154;SDS011;566;48.414;9.118;2023-02-18T02:04:50;2.67;;;1.40;;
1154;SDS011;566;48.414;9.118;2023-02-18T02:07:17;3.80;;;1.50;;
1154;SDS011;566;48.414;9.118;2023-02-18T02:09:44;3.03;;;1.50;;
1154;SDS011;566;48.414;9.118;2023-02-18T02:12:20;2.55;;;1.40;;
1154;SDS011;566;48.414;9.118;2023-02-18T02:15:11;4.00;;;1.85;;
1154;SDS011;566;48.414;9.118;2023-02-18T02:18:04;1.73;;;1.10;;
1154;SDS011;566;48.414;9.118;2023-02-18T02:34:55;2.88;;;1.27;;
1154;SDS011;566;48.414;9.118;2023-02-18T02:40:35;3.33;;;1.58;;
1154;SDS011;566;48.414;9.118;2023-02-18T02:43:33;2.85;;;1.30;;
1154;SDS011;566;48.414;9.118;2023-02-18T02:46:30;1.90;;;1.10;;
1154;SDS011;566;48.414;9.118;2023-02-18T02:51:40;1.73;;;1.10;;
1154;SDS011;566;48.414;9.118;2023-02-18T02:56:39;3.53;;;1.27;;
1154;SDS011;566;48.414;9.118;2023-02-18T02:59:06;3.50;;;1.10;;
1154;SDS011;566;48.414;9.118;2023-02-18T03:01:40;2.53;;;1.05;;
1154;SDS011;566;48.414;9.118;2023-02-18T03:12:35;2.55;;;1.10;;
1154;SDS011;566;48.414;9.118;2023-02-18T03:15:24;1.88;;;1.10;;
1154;SDS011;566;48.414;9.118;2023-02-18T03:18:07;3.03;;;1.35;;
1154;SDS011;566;48.414;9.118;2023-02-18T03:20:56;2.60;;;1.20;;
1154;SDS011;566;48.414;9.118;2023-02-18T03:23:31;3.38;;;1.17;;
1154;SDS011;566;48.414;9.118;2023-02-18T03:26:02;2.00;;;1.10;;
1154;SDS011;566;48.414;9.118;2023-02-18T03:28:30;2.10;;;1.10;;
1154;SDS011;566;48.414;9.118;2023-02-18T03:30:59;2.08;;;1.05;;
1154;SDS011;566;48.414;9.118;2023-02-18T03:33:36;2.25;;;0.90;;
1154;SDS011;566;48.414;9.118;2023-02-18T03:36:04;2.47;;;0.98;;
1154;SDS011;566;48.414;9.118;2023-02-18T03:38:33;2.00;;;1.13;;
1154;SDS011;566;48.414;9.118;2023-02-18T03:41:14;3.97;;;1.63;;
1154;SDS011;566;48.414;9.118;2023-02-18T03:43:47;3.22;;;1.30;;
1154;SDS011;566;48.414;9.118;2023-02-18T03:46:17;3.05;;;1.20;;
1154;SDS011;566;48.414;9.118;2023-02-18T03:48:43;3.33;;;1.45;;
1154;SDS011;566;48.414;9.118;2023-02-18T03:51:09;3.13;;;1.35;;
1154;SDS011;566;48.414;9.118;2023-02-18T03:53:34;3.20;;;1.30;;
1154;SDS011;566;48.414;9.118;2023-02-18T03:56:00;2.42;;;1.40;;
1154;SDS011;566;48.414;9.118;2023-02-18T03:58:25;3.35;;;1.70;;
1154;SDS011;566;48.414;9.118;2023-02-18T04:00:51;2.95;;;1.40;;
1154;SDS011;566;48.414;9.118;2023-02-18T04:03:16;2.60;;;1.35;;
1154;SDS011;566;48.414;9.118;2023-02-18T04:05:42;2.75;;;1.58;;
1154;SDS011;566;48.414;9.118;2023-02-18T04:08:08;13.88;;;2.00;;
1154;SDS011;566;48.414;9.118;2023-02-18T04:10:33;4.03;;;1.42;;
1154;SDS011;566;48.414;9.118;2023-02-18T04:12:59;2.78;;;1.38;;
1154;SDS011;566;48.414;9.118;2023-02-18T04:15:24;2.90;;;1.40;;
1154;SDS011;566;48.414;9.118;2023-02-18T04:17:50;3.00;;;1.50;;
1154;SDS011;566;48.414;9.118;2023-02-18T04:20:16;2.65;;;1.40;;
1154;SDS011;566;48.414;9.118;2023-02-18T04:22:42;3.47;;;1.30;;
1154;SDS011;566;48.414;9.118;2023-02-18T04:25:07;3.22;;;1.30;;
1154;SDS011;566;48.414;9.118;2023-02-18T04:27:33;2.88;;;1.50;;
1154;SDS011;566;48.414;9.118;2023-02-18T04:29:58;2.20;;;1.30;;
1154;SDS011;566;48.414;9.118;2023-02-18T04:32:24;3.40;;;1.70;;
1154;SDS011;566;48.414;9.118;2023-02-18T04:34:49;3.45;;;1.63;;
1154;SDS011;566;48.414;9.118;2023-02-18T04:37:15;2.53;;;1.38;;
1154;SDS011;566;48.414;9.118;2023-02-18T04:39:41;2.47;;;1.30;;
1154;SDS011;566;48.414;9.118;2023-02-18T04:42:06;3.08;;;1.40;;
1154;SDS011;566;48.414;9.118;2023-02-18T04:44:34;4.47;;;1.42;;
1154;SDS011;566;48.414;9.118;2023-02-18T04:47:01;4.35;;;1.60;;
1154;SDS011;566;48.414;9.118;2023-02-18T04:49:30;2.85;;;1.38;;
1154;SDS011;566;48.414;9.118;2023-02-18T04:51:55;2.80;;;1.50;;
1154;SDS011;566;48.414;9.118;2023-02-18T04:54:21;3.20;;;1.63;;
1154;SDS011;566;48.414;9.118;2023-02-18T04:56:46;2.20;;;1.10;;
1154;SDS011;566;48.414;9.118;2023-02-18T04:59:12;2.60;;;1.40;;
1154;SDS011;566;48.414;9.118;2023-02-18T05:01:37;2.47;;;1.23;;
1154;SDS011;566;48.414;9.118;2023-02-18T05:04:03;3.22;;;1.50;;
1154;SDS011;566;48.414;9.118;2023-02-18T05:06:29;2.05;;;1.10;;
1154;SDS011;566;48.414;9.118;2023-02-18T05:08:54;2.35;;;1.20;;
1154;SDS011;566;48.414;9.118;2023-02-18T05:11:20;2.13;;;1.23;;
1154;SDS011;566;48.414;9.118;2023-02-18T05:13:48;2.75;;;1.20;;
1154;SDS011;566;48.414;9.118;2023-02-18T05:16:14;3.65;;;1.13;;
1154;SDS011;566;48.414;9.118;2023-02-18T05:18:40;2.72;;;1.33;;
1154;SDS011;566;48.414;9.118;2023-02-18T05:21:05;3.00;;;1.30;;
1154;SDS011;566;48.414;9.118;2023-02-18T05:23:31;2.25;;;1.25;;
1154;SDS011;566;48.414;9.118;2023-02-18T05:25:59;3.78;;;1.20;;
1154;SDS011;566;48.414;9.118;2023-02-18T05:28:25;2.00;;;1.10;;
1154;SDS011;566;48.414;9.118;2023-02-18T05:30:50;2.40;;;1.38;;
1154;SDS011;566;48.414;9.118;2023-02-18T05:33:16;2.35;;;1.08;;
1154;SDS011;566;48.414;9.118;2023-02-18T05:35:41;2.65;;;1.10;;
1154;SDS011;566;48.414;9.118;2023-02-18T05:38:07;3.00;;;1.33;;
1154;SDS011;566;48.414;9.118;2023-02-18T05:40:37;2.22;;;1.10;;
1154;SDS011;566;48.414;9.118;2023-02-18T05:43:03;2.85;;;1.45;;
1154;SDS011;566;48.414;9.118;2023-02-18T05:45:28;3.30;;;1.70;;
1154;SDS011;566;48.414;9.118;2023-02-18T05:47:54;3.03;;;1.30;;
1154;SDS011;566;48.414;9.118;2023-02-18T05:50:19;2.58;;;1.23;;
1154;SDS011;566;48.414;9.118;2023-02-18T05:52:48;1.98;;;1.15;;
1154;SDS011;566;48.414;9.118;2023-02-18T05:55:13;3.05;;;1.20;;
1154;SDS011;566;48.414;9.118;2023-02-18T05:57:39;2.10;;;1.17;;
1154;SDS011;566;48.414;9.118;2023-02-18T06:00:05;2.75;;;1.42;;
1154;SDS011;566;48.414;9.118;2023-02-18T06:02:33;7.85;;;4.05;;
1154;SDS011;566;48.414;9.118;2023-02-18T06:04:59;3.28;;;1.25;;
1154;SDS011;566;48.414;9.118;2023-02-18T06:07:24;4.35;;;1.40;;
1154;SDS011;566;48.414;9.118;2023-02-18T06:09:50;2.83;;;1.30;;
1154;SDS011;566;48.414;9.118;2023-02-18T06:12:15;3.00;;;1.30;;
1154;SDS011;566;48.414;9.118;2023-02-18T06:14:41;3.13;;;1.40;;
1154;SDS011;566;48.414;9.118;2023-02-18T06:17:13;2.72;;;1.30;;
1154;SDS011;566;48.414;9.118;2023-02-18T06:19:39;4.13;;;1.48;;
1154;SDS011;566;48.414;9.118;2023-02-18T06:22:05;3.08;;;1.70;;
1154;SDS011;566;48.414;9.118;2023-02-18T06:24:31;3.50;;;1.70;;
1154;SDS011;566;48.414;9.118;2023-02-18T06:26:58;3.33;;;1.60;;
1154;SDS011;566;48.414;9.118;2023-02-18T06:29:23;3.60;;;1.70;;
1154;SDS011;566;48.414;9.118;2023-02-18T06:31:49;3.22;;;1.67;;
1154;SDS011;566;48.414;9.118;2023-02-18T06:34:18;3.72;;;1.50;;
1154;SDS011;566;48.414;9.118;2023-02-18T06:36:43;3.95;;;1.40;;
1154;SDS011;566;48.414;9.118;2023-02-18T06:39:09;3.50;;;1.30;;
1154;SDS011;566;48.414;9.118;2023-02-18T06:41:34;2.97;;;1.42;;
1154;SDS011;566;48.414;9.118;2023-02-18T06:44:00;3.35;;;1.45;;
1154;SDS011;566;48.414;9.118;2023-02-18T06:46:29;4.88;;;2.00;;
1154;SDS011;566;48.414;9.118;2023-02-18T06:48:54;3.03;;;1.60;;
1154;SDS011;566;48.414;9.118;2023-02-18T06:51:20;2.95;;;1.52;;
1154;SDS011;566;48.414;9.118;2023-02-18T06:53:45;3.38;;;1.60;;
1154;SDS011;566;48.414;9.118;2023-02-18T06:56:11;4.82;;;2.65;;
1154;SDS011;566;48.414;9.118;2023-02-18T06:58:37;3.72;;;1.77;;
1154;SDS011;566;48.414;9.118;2023-02-18T07:01:02;4.53;;;1.77;;
1154;SDS011;566;48.414;9.118;2023-02-18T07:03:28;4.97;;;1.70;;
1154;SDS011;566;48.414;9.118;2023-02-18T07:05:54;4.35;;;2.22;;
1154;SDS011;566;48.414;9.118;2023-02-18T07:08:20;4.10;;;2.13;;
1154;SDS011;566;48.414;9.118;2023-02-18T07:10:45;3.55;;;1.67;;
1154;SDS011;566;48.414;9.118;2023-02-18T07:13:12;4.65;;;2.05;;
1154;SDS011;566;48.414;9.118;2023-02-18T07:15:39;3.10;;;1.60;;
1154;SDS011;566;48.414;9.118;2023-02-18T07:18:04;3.65;;;1.60;;
1154;SDS011;566;48.414;9.118;2023-02-18T07:20:30;5.85;;;2.78;;
1154;SDS011;566;48.414;9.118;2023-02-18T07:22:56;4.65;;;2.10;;
1154;SDS011;566;48.414;9.118;2023-02-18T07:25:22;3.60;;;2.15;;
1154;SDS011;566;48.414;9.118;2023-02-18T07:27:48;5.45;;;3.08;;
1154;SDS011;566;48.414;9.118;2023-02-18T07:30:14;3.40;;;1.95;;
1154;SDS011;566;48.414;9.118;2023-02-18T07:32:40;3.83;;;1.88;;
1154;SDS011;566;48.414;9.118;2023-02-18T07:35:05;5.15;;;2.30;;
1154;SDS011;566;48.414;9.118;2023-02-18T07:37:31;5.03;;;2.50;;
1154;SDS011;566;48.414;9.118;2023-02-18T07:39:57;4.55;;;2.40;;
1154;SDS011;566;48.414;9.118;2023-02-18T07:42:23;4.20;;;2.30;;
1154;SDS011;566;48.414;9.118;2023-02-18T07:44:48;3.72;;;1.70;;
1154;SDS011;566;48.414;9.118;2023-02-18T07:47:14;2.80;;;1.52;;
1154;SDS011;566;48.414;9.118;2023-02-18T07:49:43;3.97;;;1.83;;
1154;SDS011;566;48.414;9.118;2023-02-18T07:52:10;4.20;;;1.70;;
1154;SDS011;566;48.414;9.118;2023-02-18T07:54:36;3.75;;;1.77;;
1154;SDS011;566;48.414;9.118;2023-02-18T07:57:02;3.38;;;1.70;;
1154;SDS011;566;48.414;9.118;2023-02-18T07:59:30;4.38;;;1.60;;
1154;SDS011;566;48.414;9.118;2023-02-18T08:01:56;3.55;;;1.75;;
1154;SDS011;566;48.414;9.118;2023-02-18T08:04:21;6.80;;;2.00;;
1154;SDS011;566;48.414;9.118;2023-02-18T08:06:50;3.35;;;1.65;;
1154;SDS011;566;48.414;9.118;2023-02-18T08:09:16;3.53;;;1.80;;
1154;SDS011;566;48.414;9.118;2023-02-18T08:11:43;3.38;;;1.73;;
1154;SDS011;566;48.414;9.118;2023-02-18T08:14:12;3.20;;;1.50;;
1154;SDS011;566;48.414;9.118;2023-02-18T08:16:37;3.28;;;1.70;;
1154;SDS011;566;48.414;9.118;2023-02-18T08:19:03;2.88;;;1.48;;
1154;SDS011;566;48.414;9.118;2023-02-18T08:21:30;4.25;;;1.60;;
1154;SDS011;566;48.414;9.118;2023-02-18T08:24:05;3.45;;;1.50;;
1154;SDS011;566;48.414;9.118;2023-02-18T08:26:32;3.92;;;1.88;;
1154;SDS011;566;48.414;9.118;2023-02-18T08:28:57;3.70;;;1.65;;
1154;SDS011;566;48.414;9.118;2023-02-18T08:31:24;4.47;;;1.98;;
1154;SDS011;566;48.414;9.118;2023-02-18T08:33:52;3.53;;;1.63;;
1154;SDS011;566;48.414;9.118;2023-02-18T08:36:19;3.00;;;1.50;;
1154;SDS011;566;48.414;9.118;2023-02-18T08:38:46;4.53;;;1.77;;
1154;SDS011;566;48.414;9.118;2023-02-18T08:41:12;4.63;;;1.95;;
1154;SDS011;566;48.414;9.118;2023-02-18T08:43:38;4.43;;;1.92;;
1154;SDS011;566;48.414;9.118;2023-02-18T08:46:04;4.15;;;1.83;;
1154;SDS011;566;48.414;9.118;2023-02-18T08:48:30;3.90;;;1.83;;
1154;SDS011;566;48.414;9.118;2023-02-18T08:50:57;3.97;;;1.88;;
1154;SDS011;566;48.414;9.118;2023-02-18T08:53:23;3.50;;;1.60;;
1154;SDS011;566;48.414;9.118;2023-02-18T08:55:50;7.60;;;3.15;;
1154;SDS011;566;48.414;9.118;2023-02-18T08:58:20;4.72;;;2.30;;
1154;SDS011;566;48.414;9.118;2023-02-18T09:00:46;4.97;;;1.83;;
1154;SDS011;566;48.414;9.118;2023-02-18T09:03:12;4.68;;;1.85;;
1154;SDS011;566;48.414;9.118;2023-02-18T09:05:39;4.43;;;2.22;;
1154;SDS011;566;48.414;9.118;2023-02-18T09:08:05;6.85;;;3.58;;
1154;SDS011;566;48.414;9.118;2023-02-18T09:10:30;6.70;;;3.63;;
1154;SDS011;566;48.414;9.118;2023-02-18T09:12:56;7.72;;;4.30;;
1154;SDS011;566;48.414;9.118;2023-02-18T09:15:22;4.55;;;2.22;;
1154;SDS011;566;48.414;9.118;2023-02-18T09:17:48;4.80;;;2.33;;
1154;SDS011;566;48.414;9.118;2023-02-18T09:20:17;3.70;;;1.80;;
1154;SDS011;566;48.414;9.118;2023-02-18T09:22:43;3.92;;;1.90;;
1154;SDS011;566;48.414;9.118;2023-02-18T09:25:08;4.10;;;1.80;;
1154;SDS011;566;48.414;9.118;2023-02-18T09:27:34;5.75;;;2.70;;
1154;SDS011;566;48.414;9.118;2023-02-18T09:30:00;6.47;;;2.97;;
1154;SDS011;566;48.414;9.118;2023-02-18T09:32:26;7.25;;;3.65;;
1154;SDS011;566;48.414;9.118;2023-02-18T09:34:52;7.35;;;3.58;;
1154;SDS011;566;48.414;9.118;2023-02-18T09:37:18;6.72;;;3.88;;
1154;SDS011;566;48.414;9.118;2023-02-18T09:39:44;12.27;;;7.90;;
1154;SDS011;566;48.414;9.118;2023-02-18T09:42:11;13.93;;;8.05;;
1154;SDS011;566;48.414;9.118;2023-02-18T09:44:45;4.40;;;2.00;;
1154;SDS011;566;48.414;9.118;2023-02-18T09:50:12;5.57;;;2.50;;
1154;SDS011;566;48.414;9.118;2023-02-18T09:52:53;4.57;;;1.98;;
1154;SDS011;566;48.414;9.118;2023-02-18T09:57:58;3.28;;;1.67;;
1154;SDS011;566;48.414;9.118;2023-02-18T10:03:02;3.30;;;1.63;;
1154;SDS011;566;48.414;9.118;2023-02-18T10:05:33;3.42;;;1.65;;
1154;SDS011;566;48.414;9.118;2023-02-18T10:08:02;3.47;;;1.63;;
1154;SDS011;566;48.414;9.118;2023-02-18T10:10:39;2.60;;;1.52;;
1154;SDS011;566;48.414;9.118;2023-02-18T10:13:16;3.25;;;1.40;;
1154;SDS011;566;48.414;9.118;2023-02-18T10:15:46;3.22;;;1.60;;
1154;SDS011;566;48.414;9.118;2023-02-18T10:20:44;4.55;;;1.73;;
1154;SDS011;566;48.414;9.118;2023-02-18T10:23:09;5.18;;;1.70;;
1154;SDS011;566;48.414;9.118;2023-02-18T10:25:40;3.38;;;1.60;;
1154;SDS011;566;48.414;9.118;2023-02-18T10:28:09;3.35;;;1.38;;
1154;SDS011;566;48.414;9.118;2023-02-18T10:30:42;4.03;;;1.58;;
1154;SDS011;566;48.414;9.118;2023-02-18T10:41:34;7.25;;;2.58;;
1154;SDS011;566;48.414;9.118;2023-02-18T10:47:21;3.97;;;1.55;;
1154;SDS011;566;48.414;9.118;2023-02-18T10:49:54;4.93;;;1.77;;
1154;SDS011;566;48.414;9.118;2023-02-18T10:52:21;3.75;;;1.50;;
1154;SDS011;566;48.414;9.118;2023-02-18T10:54:58;6.82;;;2.10;;
1154;SDS011;566;48.414;9.118;2023-02-18T10:57:24;5.80;;;1.80;;
1154;SDS011;566;48.414;9.118;2023-02-18T10:59:55;8.05;;;2.45;;
1154;SDS011;566;48.414;9.118;2023-02-18T11:02:41;4.72;;;2.20;;
1154;SDS011;566;48.414;9.118;2023-02-18T11:05:23;5.43;;;2.15;;
1154;SDS011;566;48.414;9.118;2023-02-18T11:07:52;5.88;;;2.50;;
1154;SDS011;566;48.414;9.118;2023-02-18T11:10:21;11.55;;;4.80;;
1154;SDS011;566;48.414;9.118;2023-02-18T11:12:54;7.00;;;3.10;;
1154;SDS011;566;48.414;9.118;2023-02-18T11:15:23;3.00;;;1.55;;
1154;SDS011;566;48.414;9.118;2023-02-18T11:17:54;4.55;;;2.05;;
1154;SDS011;566;48.414;9.118;2023-02-18T11:20:33;5.17;;;1.40;;
1154;SDS011;566;48.414;9.118;2023-02-18T11:23:18;3.22;;;1.50;;
1154;SDS011;566;48.414;9.118;2023-02-18T11:28:34;5.25;;;1.92;;
1154;SDS011;566;48.414;9.118;2023-02-18T11:31:11;4.43;;;1.50;;
1154;SDS011;566;48.414;9.118;2023-02-18T11:33:54;3.35;;;1.58;;
1154;SDS011;566;48.414;9.118;2023-02-18T11:36:29;3.70;;;1.52;;
1154;SDS011;566;48.414;9.118;2023-02-18T11:39:11;5.80;;;2.00;;
1154;SDS011;566;48.414;9.118;2023-02-18T11:41:42;6.82;;;2.25;;
1154;SDS011;566;48.414;9.118;2023-02-18T11:44:21;4.80;;;1.90;;
1154;SDS011;566;48.414;9.118;2023-02-18T11:49:44;3.00;;;1.50;;
1154;SDS011;566;48.414;9.118;2023-02-18T11:52:46;7.28;;;2.22;;
1154;SDS011;566;48.414;9.118;2023-02-18T11:55:21;4.00;;;1.77;;
1154;SDS011;566;48.414;9.118;2023-02-18T12:03:17;5.47;;;2.60;;
1154;SDS011;566;48.414;9.118;2023-02-18T12:05:55;4.13;;;1.80;;
1154;SDS011;566;48.414;9.118;2023-02-18T12:08:26;4.47;;;2.13;;
1154;SDS011;566;48.414;9.118;2023-02-18T12:11:01;4.90;;;1.60;;
1154;SDS011;566;48.414;9.118;2023-02-18T12:13:35;5.25;;;1.73;;
1154;SDS011;566;48.414;9.118;2023-02-18T12:19:17;5.88;;;2.72;;
1154;SDS011;566;48.414;9.118;2023-02-18T12:21:32;5.72;;;2.10;;
1154;SDS011;566;48.414;9.118;2023-02-18T12:24:09;4.85;;;1.63;;
1154;SDS011;566;48.414;9.118;2023-02-18T12:27:09;4.30;;;1.95;;
1154;SDS011;566;48.414;9.118;2023-02-18T12:30:07;6.53;;;2.72;;
1154;SDS011;566;48.414;9.118;2023-02-18T12:38:11;6.85;;;2.70;;
1154;SDS011;566;48.414;9.118;2023-02-18T12:41:06;4.25;;;1.83;;
1154;SDS011;566;48.414;9.118;2023-02-18T12:52:26;10.15;;;2.42;;
1154;SDS011;566;48.414;9.118;2023-02-18T12:55:14;4.30;;;1.80;;
1154;SDS011;566;48.414;9.118;2023-02-18T13:03:12;4.07;;;2.00;;
1154;SDS011;566;48.414;9.118;2023-02-18T13:09:05;3.70;;;1.65;;
1154;SDS011;566;48.414;9.118;2023-02-18T13:17:01;4.93;;;1.85;;
1154;SDS011;566;48.414;9.118;2023-02-18T13:19:30;4.20;;;1.80;;
1154;SDS011;566;48.414;9.118;2023-02-18T13:21:58;5.15;;;2.50;;
1154;SDS011;566;48.414;9.118;2023-02-18T13:24:34;7.43;;;3.30;;
1154;SDS011;566;48.414;9.118;2023-02-18T13:29:54;5.32;;;2.22;;
1154;SDS011;566;48.414;9.118;2023-02-18T13:40:26;7.55;;;2.63;;
1154;SDS011;566;48.414;9.118;2023-02-18T13:42:57;5.40;;;2.05;;
1154;SDS011;566;48.414;9.118;2023-02-18T13:51:14;6.38;;;2.00;;
1154;SDS011;566;48.414;9.118;2023-02-18T13:54:00;3.80;;;1.60;;
1154;SDS011;566;48.414;9.118;2023-02-18T13:56:30;3.92;;;1.70;;
1154;SDS011;566;48.414;9.118;2023-02-18T13:59:05;4.78;;;1.85;;
1154;SDS011;566;48.414;9.118;2023-02-18T14:01:44;4.50;;;2.20;;
1154;SDS011;566;48.414;9.118;2023-02-18T14:23:37;5.93;;;2.17;;
1154;SDS011;566;48.414;9.118;2023-02-18T14:26:04;3.78;;;1.80;;
1154;SDS011;566;48.414;9.118;2023-02-18T14:31:29;5.68;;;1.80;;
1154;SDS011;566;48.414;9.118;2023-02-18T14:49:50;9.18;;;1.90;;
1154;SDS011;566;48.414;9.118;2023-02-18T14:54:44;4.00;;;1.90;;
1154;SDS011;566;48.414;9.118;2023-02-18T14:57:15;3.33;;;1.67;;
1154;SDS011;566;48.414;9.118;2023-02-18T14:59:43;4.28;;;1.90;;
1154;SDS011;566;48.414;9.118;2023-02-18T15:02:33;3.58;;;1.83;;
1154;SDS011;566;48.414;9.118;2023-02-18T15:10:36;5.18;;;1.73;;
1154;SDS011;566;48.414;9.118;2023-02-18T15:13:27;3.05;;;1.90;;
1154;SDS011;566;48.414;9.118;2023-02-18T15:15:54;3.55;;;1.80;;
1154;SDS011;566;48.414;9.118;2023-02-18T15:18:30;4.82;;;1.65;;
1154;SDS011;566;48.414;9.118;2023-02-18T15:21:00;3.40;;;1.58;;
1154;SDS011;566;48.414;9.118;2023-02-18T15:23:28;4.80;;;1.85;;
1154;SDS011;566;48.414;9.118;2023-02-18T15:25:55;7.03;;;1.70;;
1154;SDS011;566;48.414;9.118;2023-02-18T15:28:22;5.43;;;1.80;;
1154;SDS011;566;48.414;9.118;2023-02-18T15:30:50;4.03;;;1.73;;
1154;SDS011;566;48.414;9.118;2023-02-18T15:33:17;4.20;;;1.90;;
1154;SDS011;566;48.414;9.118;2023-02-18T15:35:44;4.05;;;1.88;;
1154;SDS011;566;48.414;9.118;2023-02-18T15:38:14;3.80;;;1.98;;
1154;SDS011;566;48.414;9.118;2023-02-18T15:40:41;4.28;;;1.98;;
1154;SDS011;566;48.414;9.118;2023-02-18T15:43:11;3.78;;;1.67;;
1154;SDS011;566;48.414;9.118;2023-02-18T15:45:42;5.82;;;2.30;;
1154;SDS011;566;48.414;9.118;2023-02-18T15:48:19;6.57;;;2.75;;
1154;SDS011;566;48.414;9.118;2023-02-18T15:50:51;5.45;;;1.90;;
1154;SDS011;566;48.414;9.118;2023-02-18T15:53:19;3.97;;;1.80;;
1154;SDS011;566;48.414;9.118;2023-02-18T15:55:46;3.95;;;1.98;;
1154;SDS011;566;48.414;9.118;2023-02-18T16:00:50;3.88;;;1.95;;
1154;SDS011;566;48.414;9.118;2023-02-18T16:03:30;4.30;;;2.15;;
1154;SDS011;566;48.414;9.118;2023-02-18T16:06:18;5.95;;;2.00;;
1154;SDS011;566;48.414;9.118;2023-02-18T16:11:37;5.47;;;2.30;;
1154;SDS011;566;48.414;9.118;2023-02-18T16:14:05;4.43;;;2.05;;
1154;SDS011;566;48.414;9.118;2023-02-18T16:16:32;4.20;;;2.20;;
1154;SDS011;566;48.414;9.118;2023-02-18T16:19:02;4.20;;;2.05;;
1154;SDS011;566;48.414;9.118;2023-02-18T16:21:32;4.93;;;2.22;;
1154;SDS011;566;48.414;9.118;2023-02-18T16:24:02;6.22;;;2.50;;
1154;SDS011;566;48.414;9.118;2023-02-18T16:26:45;4.40;;;2.10;;
1154;SDS011;566;48.414;9.118;2023-02-18T16:29:12;5.82;;;3.00;;
1154;SDS011;566;48.414;9.118;2023-02-18T16:31:41;11.10;;;5.15;;
1154;SDS011;566;48.414;9.118;2023-02-18T16:34:07;8.85;;;3.40;;
1154;SDS011;566;48.414;9.118;2023-02-18T16:36:33;6.55;;;3.28;;
1154;SDS011;566;48.414;9.118;2023-02-18T16:38:58;8.13;;;4.60;;
1154;SDS011;566;48.414;9.118;2023-02-18T16:41:26;6.88;;;2.60;;
1154;SDS011;566;48.414;9.118;2023-02-18T16:43:51;6.60;;;3.65;;
1154;SDS011;566;48.414;9.118;2023-02-18T16:46:18;9.43;;;4.38;;
1154;SDS011;566;48.414;9.118;2023-02-18T16:48:48;8.52;;;3.17;;
1154;SDS011;566;48.414;9.118;2023-02-18T16:51:15;7.10;;;3.60;;
1154;SDS011;566;48.414;9.118;2023-02-18T16:53:46;10.68;;;5.53;;
1154;SDS011;566;48.414;9.118;2023-02-18T16:56:31;8.13;;;4.47;;
1154;SDS011;566;48.414;9.118;2023-02-18T16:58:59;22.70;;;9.63;;
1154;SDS011;566;48.414;9.118;2023-02-18T17:01:25;13.88;;;6.68;;
1154;SDS011;566;48.414;9.118;2023-02-18T17:04:01;10.15;;;4.50;;
1154;SDS011;566;48.414;9.118;2023-02-18T17:06:27;8.77;;;3.72;;
1154;SDS011;566;48.414;9.118;2023-02-18T17:08:53;5.07;;;2.75;;
1154;SDS011;566;48.414;9.118;2023-02-18T17:13:47;6.53;;;3.28;;
1154;SDS011;566;48.414;9.118;2023-02-18T17:16:14;4.47;;;2.58;;
1154;SDS011;566;48.414;9.118;2023-02-18T17:18:40;4.72;;;2.97;;
1154;SDS011;566;48.414;9.118;2023-02-18T17:21:11;5.38;;;2.83;;
1154;SDS011;566;48.414;9.118;2023-02-18T17:23:47;6.50;;;3.38;;
1154;SDS011;566;48.414;9.118;2023-02-18T17:26:23;7.53;;;3.47;;
1154;SDS011;566;48.414;9.118;2023-02-18T17:28:51;8.48;;;5.18;;
1154;SDS011;566;48.414;9.118;2023-02-18T17:31:20;9.10;;;5.90;;
1154;SDS011;566;48.414;9.118;2023-02-18T17:33:50;7.40;;;4.50;;
1154;SDS011;566;48.414;9.118;2023-02-18T17:36:17;5.20;;;3.45;;
1154;SDS011;566;48.414;9.118;2023-02-18T17:38:42;6.07;;;3.83;;
1154;SDS011;566;48.414;9.118;2023-02-18T17:41:08;6.03;;;3.92;;
1154;SDS011;566;48.414;9.118;2023-02-18T17:43:36;10.18;;;3.95;;
1154;SDS011;566;48.414;9.118;2023-02-18T17:46:02;7.53;;;4.70;;
1154;SDS011;566;48.414;9.118;2023-02-18T17:48:28;8.48;;;4.05;;
1154;SDS011;566;48.414;9.118;2023-02-18T17:50:54;6.25;;;3.47;;
1154;SDS011;566;48.414;9.118;2023-02-18T17:53:20;7.45;;;4.00;;
1154;SDS011;566;48.414;9.118;2023-02-18T17:55:46;6.88;;;2.90;;
1154;SDS011;566;48.414;9.118;2023-02-18T17:58:12;5.68;;;2.75;;
1154;SDS011;566;48.414;9.118;2023-02-18T18:00:46;5.35;;;3.00;;
1154;SDS011;566;48.414;9.118;2023-02-18T18:03:14;6.50;;;2.53;;
1154;SDS011;566;48.414;9.118;2023-02-18T18:05:41;6.03;;;3.35;;
1154;SDS011;566;48.414;9.118;2023-02-18T18:08:08;4.40;;;2.50;;
1154;SDS011;566;48.414;9.118;2023-02-18T18:10:37;5.05;;;2.80;;
1154;SDS011;566;48.414;9.118;2023-02-18T18:13:07;6.57;;;2.92;;
1154;SDS011;566;48.414;9.118;2023-02-18T18:15:37;4.90;;;2.65;;
1154;SDS011;566;48.414;9.118;2023-02-18T18:18:04;5.45;;;2.80;;
1154;SDS011;566;48.414;9.118;2023-02-18T18:20:31;5.35;;;2.70;;
1154;SDS011;566;48.414;9.118;2023-02-18T18:22:59;5.55;;;3.10;;
1154;SDS011;566;48.414;9.118;2023-02-18T18:25:27;5.53;;;3.00;;
1154;SDS011;566;48.414;9.118;2023-02-18T18:27:54;5.40;;;2.88;;
1154;SDS011;566;48.414;9.118;2023-02-18T18:30:21;6.30;;;2.78;;
1154;SDS011;566;48.414;9.118;2023-02-18T18:32:48;7.15;;;3.35;;